Airport Name : Norwich

Other Name : Norwich

ICAO : EGSH

IATA : NWI

FAA :

Latitude : 52.675833

Longitude : 1.282778

Country : United Kingdom

Local Date and Time : 1/22/2018 3:45:00 PM

 

TAF (Terminal Aerodrome Forecast)

TAF EGSH 221401Z 2215/2224 28014KT 9999 SCT040 BECMG 2221/2224 22008KT

 

METAR (METeorological Aerodrome Report)

EGSH 221520Z 27012KT 240V310 9999 SCT048 08/05 Q1012 NOSIG

EGSH 221450Z 28013KT 9999 SCT025 08/05 Q1011 NOSIG

EGSH 221420Z 28016KT 250V320 9999 SCT025 09/05 Q1011 NOSIG

EGSH 221350Z 28016KT 240V310 9999 FEW023 09/05 Q1010 NOSIG

EGSH 221320Z 27011KT 9999 FEW025 09/05 Q1009 NOSIG

EGSH 221250Z 28015KT 9999 FEW025 09/05 Q1009 NOSIG

EGSH 221220Z 28013KT 250V320 9999 FEW025 09/06 Q1009 NOSIG

EGSH 221150Z 28013KT 9999 FEW048 08/05 Q1009 NOSIG